Time;durP1;ratioP1;P1;durP2;ratioP2;P2;SDS_P1;SDS_P2;PMS_P1;PMS_P2;Temp;Humidity;BMP_temperature;BMP_pressure;BME280_temperature;BME280_humidity;BME280_pressure;Samples;Min_cycle;Max_cycle;Signal;HPM_P1;HPM_P2
2023/08/31 00:00:32;;;;;;;0.90;0.90;;;;;;;11.26;96.41;100758.47;5032390;28;20087;-84
2023/08/31 00:02:58;;;;;;;1.15;1.10;;;;;;;11.28;96.74;100761.88;5032769;28;20512;-84
2023/08/31 00:05:24;;;;;;;2.17;1.10;;;;;;;11.25;99.04;100756.78;5031692;28;20104;-84
2023/08/31 00:07:50;;;;;;;;;;;;;;;11.24;97.98;100757.66;5033118;28;20473;-84
2023/08/31 00:10:17;;;;;;;2.50;1.40;;;;;;;11.21;97.50;100764.63;5032176;28;19917;-84
2023/08/31 00:12:42;;;;;;;;;;;;;;;11.19;98.13;100756.88;5031876;28;20539;-84
2023/08/31 00:15:08;;;;;;;1.73;1.30;;;;;;;11.14;98.28;100761.31;5032540;28;19913;-84
2023/08/31 00:17:34;;;;;;;1.50;1.40;;;;;;;11.10;99.04;100762.25;5032624;28;20030;-85
2023/08/31 00:19:59;;;;;;;1.17;1.13;;;;;;;11.11;98.73;100754.44;5031956;28;20037;-85
2023/08/31 00:22:24;;;;;;;1.73;1.63;;;;;;;11.06;100.00;100755.41;5032667;28;20029;-85
2023/08/31 00:24:51;;;;;;;2.03;1.80;;;;;;;10.96;98.80;100745.19;5031519;28;20445;-84
2023/08/31 00:27:17;;;;;;;2.92;1.80;;;;;;;10.99;98.88;100759.00;5034825;28;20022;-85
2023/08/31 00:29:44;;;;;;;1.80;1.70;;;;;;;10.96;99.23;100754.72;5036697;28;20112;-85
2023/08/31 00:32:09;;;;;;;2.30;2.10;;;;;;;10.96;100.00;100758.16;5035326;28;20044;-84
2023/08/31 00:34:35;;;;;;;2.23;2.03;;;;;;;10.94;100.00;100759.94;5036730;28;20029;-85
2023/08/31 00:37:00;;;;;;;2.43;2.20;;;;;;;10.89;99.43;100751.38;5017534;28;20109;-84
2023/08/31 00:39:27;;;;;;;1.93;1.80;;;;;;;10.85;100.00;100749.72;5016169;28;20492;-85
2023/08/31 00:41:53;;;;;;;2.28;1.80;;;;;;;10.88;100.00;100756.59;5016718;28;20096;-84
2023/08/31 00:44:18;;;;;;;1.77;1.50;;;;;;;10.86;100.00;100755.78;5016464;28;20030;-85
2023/08/31 00:46:43;;;;;;;1.43;1.33;;;;;;;10.85;99.67;100754.06;5015382;28;20446;-85
2023/08/31 00:49:09;;;;;;;1.60;1.50;;;;;;;10.86;99.72;100761.81;5016016;28;20053;-84
2023/08/31 00:51:35;;;;;;;1.53;1.40;;;;;;;10.84;99.49;100755.78;5016332;28;20022;-84
2023/08/31 00:54:00;;;;;;;1.60;1.50;;;;;;;10.82;99.62;100757.56;5015752;28;20029;-84
2023/08/31 00:56:26;;;;;;;2.00;1.80;;;;;;;10.80;99.56;100755.00;5015830;28;20038;-85
2023/08/31 00:58:51;;;;;;;1.53;1.43;;;;;;;10.79;98.95;100752.44;5016374;28;20036;-85
2023/08/31 01:01:37;;;;;;;1.50;1.30;;;;;;;10.80;99.24;100759.34;5033938;23;20054;-84
2023/08/31 01:04:15;;;;;;;1.40;1.30;;;;;;;10.78;99.13;100758.50;5035836;28;20053;-85
2023/08/31 01:07:03;;;;;;;1.38;1.27;;;;;;;10.79;98.94;100755.03;5035968;28;20034;-85
2023/08/31 01:09:55;;;;;;;1.50;1.40;;;;;;;10.76;99.91;100755.06;5036228;28;20025;-85
2023/08/31 01:12:34;;;;;;;3.40;2.17;;;;;;;10.69;100.00;100745.69;5035143;28;20125;-84
2023/08/31 01:15:10;;;;;;;2.88;2.03;;;;;;;10.64;100.00;100735.38;5035248;28;20030;-86
2023/08/31 01:17:43;;;;;;;3.53;2.30;;;;;;;10.63;100.00;100744.91;5035960;28;20093;-84
2023/08/31 01:20:11;;;;;;;3.38;2.22;;;;;;;10.62;100.00;100745.78;5035487;28;20034;-84
2023/08/31 01:22:43;;;;;;;2.72;2.20;;;;;;;10.58;100.00;100741.56;5035572;28;20022;-85
2023/08/31 01:25:09;;;;;;;2.53;2.22;;;;;;;10.57;100.00;100736.38;5034876;28;20113;-86
2023/08/31 01:27:39;;;;;;;2.65;2.35;;;;;;;10.56;100.00;100747.63;5035317;28;20022;-84
2023/08/31 01:30:07;;;;;;;2.60;2.20;;;;;;;10.54;100.00;100754.56;5034549;28;20034;-84
2023/08/31 01:32:34;;;;;;;3.38;2.10;;;;;;;10.53;100.00;100755.47;5035208;28;20037;-84
2023/08/31 01:35:01;;;;;;;3.42;2.40;;;;;;;10.50;100.00;100757.25;5035415;28;20284;-85
2023/08/31 01:38:08;;;;;;;3.67;2.50;;;;;;;10.45;100.00;100751.25;5033803;28;20040;-85
2023/08/31 01:40:45;;;;;;;2.05;1.90;;;;;;;10.47;100.00;100762.47;5044106;28;20405;-85
2023/08/31 01:43:11;;;;;;;2.35;2.10;;;;;;;10.45;100.00;100764.22;5054166;28;20116;-85
2023/08/31 01:45:37;;;;;;;2.10;1.90;;;;;;;10.42;100.00;100769.47;5055459;28;20017;-84
2023/08/31 01:48:06;;;;;;;1.80;1.70;;;;;;;10.42;100.00;100769.47;5052877;28;20465;-84
2023/08/31 01:50:32;;;;;;;2.13;1.63;;;;;;;10.44;100.00;100772.88;5040556;28;20026;-85
2023/08/31 01:52:57;;;;;;;1.60;1.50;;;;;;;10.43;100.00;100765.13;5035247;28;20033;-85
2023/08/31 01:55:23;;;;;;;1.80;1.70;;;;;;;10.47;100.00;100772.84;5053859;28;20083;-85
2023/08/31 01:57:49;;;;;;;1.77;1.67;;;;;;;10.50;100.00;100766.75;5054113;28;20021;-84
2023/08/31 02:00:16;;;;;;;1.77;1.67;;;;;;;10.50;100.00;100765.03;5054023;28;20025;-84
2023/08/31 02:02:42;;;;;;;1.80;1.70;;;;;;;10.49;100.00;100752.06;5055410;28;20112;-84
2023/08/31 02:05:08;;;;;;;2.00;1.80;;;;;;;10.54;100.00;100763.22;5053954;28;20480;-85
2023/08/31 02:07:33;;;;;;;2.03;1.83;;;;;;;10.55;100.00;100767.53;5054853;28;20492;-85
2023/08/31 02:09:58;;;;;;;1.80;1.60;;;;;;;10.58;100.00;100774.41;5047298;28;20292;-85
2023/08/31 02:12:23;;;;;;;1.90;1.80;;;;;;;10.52;100.00;100753.78;5033571;28;20037;-84
2023/08/31 02:14:49;;;;;;;2.00;1.80;;;;;;;10.64;100.00;100772.56;5034920;28;20030;-85
2023/08/31 02:17:14;;;;;;;2.60;2.20;;;;;;;10.68;100.00;100772.53;5034509;28;20040;-85
2023/08/31 02:19:40;;;;;;;1.83;1.73;;;;;;;10.65;100.00;100761.31;5033851;28;20048;-85
2023/08/31 02:22:05;;;;;;;2.07;1.87;;;;;;;10.72;100.00;100769.84;5034445;28;20477;-84
2023/08/31 02:24:30;;;;;;;2.43;1.97;;;;;;;10.75;100.00;100761.16;5033974;28;20029;-84
2023/08/31 02:26:56;;;;;;;2.40;2.10;;;;;;;10.78;100.00;100761.09;5034226;28;20054;-85
2023/08/31 02:29:22;;;;;;;3.03;2.30;;;;;;;10.73;100.00;100748.22;5034371;28;20018;-85
2023/08/31 02:31:47;;;;;;;2.40;2.20;;;;;;;10.79;100.00;100760.22;5033631;28;20021;-85
2023/08/31 02:34:13;;;;;;;2.83;2.30;;;;;;;10.86;100.00;100760.97;5034236;28;20025;-85
2023/08/31 02:36:38;;;;;;;2.53;2.20;;;;;;;10.85;100.00;100761.84;5034498;28;20014;-84
2023/08/31 02:39:03;;;;;;;3.87;2.63;;;;;;;10.86;100.00;100769.59;5033525;28;20024;-84
2023/08/31 02:41:29;;;;;;;3.77;2.70;;;;;;;10.88;100.00;100777.34;5034520;28;20022;-85
2023/08/31 02:43:55;;;;;;;2.60;2.40;;;;;;;10.88;100.00;100782.56;5034472;28;20461;-84
2023/08/31 02:46:20;;;;;;;6.00;3.47;;;;;;;10.85;100.00;100773.09;5033212;28;20029;-85
2023/08/31 02:48:46;;;;;;;4.17;2.97;;;;;;;10.80;100.00;100770.56;5034093;28;20033;-84
2023/08/31 02:51:11;;;;;;;4.03;2.90;;;;;;;10.82;100.00;100778.31;5033713;28;20010;-85
2023/08/31 02:53:36;;;;;;;3.40;2.30;;;;;;;10.76;100.00;100768.91;5033323;28;20026;-84
2023/08/31 02:56:02;;;;;;;3.00;2.60;;;;;;;10.78;100.00;100774.09;5035001;28;20036;-84
2023/08/31 02:58:28;;;;;;;3.40;2.50;;;;;;;10.77;100.00;100775.81;5033993;28;20025;-85
2023/08/31 03:00:55;;;;;;;;;;;;;;;10.76;100.00;100774.09;5033645;28;20055;-85
2023/08/31 03:03:21;;;;;;;2.72;2.42;;;;;;;10.74;100.00;100775.88;5033710;28;19924;-85
2023/08/31 03:05:47;;;;;;;2.57;2.37;;;;;;;10.73;100.00;100773.28;5033491;28;20025;-85
2023/08/31 03:08:14;;;;;;;2.43;2.10;;;;;;;10.72;100.00;100779.38;5032601;28;20034;-85
2023/08/31 03:10:40;;;;;;;4.05;3.10;;;;;;;10.66;100.00;100777.72;5044859;28;20017;-85
2023/08/31 03:13:06;;;;;;;4.45;2.90;;;;;;;10.65;100.00;100778.59;5052536;28;20036;-84
2023/08/31 03:15:34;;;;;;;4.07;3.03;;;;;;;10.64;100.00;100776.88;5053021;28;20025;-84
2023/08/31 03:18:00;;;;;;;6.07;3.80;;;;;;;10.60;100.00;100767.47;5053213;28;20021;-85
2023/08/31 03:20:25;;;;;;;5.53;3.40;;;;;;;10.57;100.00;100772.69;5053595;28;20098;-85
2023/08/31 03:22:51;;;;;;;5.93;3.87;;;;;;;10.56;100.00;100771.84;5052385;28;20017;-85
2023/08/31 03:25:16;;;;;;;7.10;4.47;;;;;;;10.55;100.00;100777.03;5052913;28;20029;-85
2023/08/31 03:27:42;;;;;;;9.63;5.50;;;;;;;10.47;100.00;100777.19;5052738;28;20074;-84
2023/08/31 03:30:08;;;;;;;9.57;5.73;;;;;;;10.42;100.00;100773.81;5052939;28;20066;-85
2023/08/31 03:32:33;;;;;;;8.37;4.90;;;;;;;10.43;100.00;100772.94;5053120;28;20105;-84
2023/08/31 03:34:59;;;;;;;6.30;4.40;;;;;;;10.44;100.00;100766.84;5039517;28;20018;-84
2023/08/31 03:37:24;;;;;;;6.60;4.13;;;;;;;10.47;100.00;100766.81;5032417;28;20118;-85
2023/08/31 03:39:49;;;;;;;5.03;3.50;;;;;;;10.45;100.00;100774.59;5033100;28;20505;-85
2023/08/31 03:42:15;;;;;;;7.63;4.47;;;;;;;10.42;100.00;100773.81;5031931;28;20442;-85
2023/08/31 03:44:40;;;;;;;7.10;4.23;;;;;;;10.34;100.00;100760.91;5033225;28;20033;-85
2023/08/31 03:47:06;;;;;;;7.23;4.30;;;;;;;10.35;100.00;100765.22;5032750;28;20059;-85
2023/08/31 03:49:31;;;;;;;6.70;4.23;;;;;;;10.33;100.00;100773.03;5032375;28;20386;-85
2023/08/31 03:51:57;;;;;;;5.70;3.60;;;;;;;10.34;100.00;100771.28;5032818;28;20108;-85
2023/08/31 03:54:23;;;;;;;5.33;3.60;;;;;;;10.30;100.00;100770.50;5032734;28;20041;-85
2023/08/31 03:56:48;;;;;;;5.17;3.63;;;;;;;10.30;100.00;100767.06;5032338;28;20288;-86
2023/08/31 03:59:14;;;;;;;5.87;3.60;;;;;;;10.26;100.00;100763.63;5032932;28;20091;-85
2023/08/31 04:01:39;;;;;;;4.20;3.00;;;;;;;10.25;100.00;100766.25;5032119;28;20048;-86
2023/08/31 04:04:05;;;;;;;8.57;4.93;;;;;;;10.24;100.00;100772.31;5031969;28;20032;-86
2023/08/31 04:06:30;;;;;;;10.73;6.00;;;;;;;10.21;100.00;100775.81;5032978;28;20386;-85
2023/08/31 04:08:56;;;;;;;11.30;6.00;;;;;;;10.22;100.00;100777.53;5032709;28;20025;-86
2023/08/31 04:11:22;;;;;;;7.40;4.73;;;;;;;10.20;100.00;100781.88;5032080;28;20390;-85
2023/08/31 04:13:47;;;;;;;8.17;4.83;;;;;;;10.17;100.00;100779.31;5032394;28;20037;-86
2023/08/31 04:16:13;;;;;;;7.77;4.73;;;;;;;10.19;100.00;100788.78;5032665;28;20026;-85
2023/08/31 04:18:38;;;;;;;7.17;4.27;;;;;;;10.17;100.00;100792.28;5032167;28;20030;-85
2023/08/31 04:21:03;;;;;;;6.93;4.20;;;;;;;10.09;100.00;100787.22;5032293;28;20036;-85
2023/08/31 04:23:29;;;;;;;7.80;4.67;;;;;;;10.09;100.00;100787.22;5032871;28;20037;-85
2023/08/31 04:25:55;;;;;;;7.37;4.40;;;;;;;10.10;100.00;100788.94;5032274;28;20053;-85
2023/08/31 04:28:21;;;;;;;6.30;4.10;;;;;;;10.12;100.00;100797.53;5032424;28;20037;-85
2023/08/31 04:30:46;;;;;;;8.47;4.80;;;;;;;10.07;100.00;100788.13;5032702;28;20026;-85
2023/08/31 04:33:12;;;;;;;5.90;4.20;;;;;;;10.10;100.00;100801.06;5053133;23;20049;-85
2023/08/31 04:35:50;;;;;;;5.03;3.50;;;;;;;10.10;100.00;100798.47;5032743;28;20484;-85
2023/08/31 04:38:21;;;;;;;5.20;3.38;;;;;;;10.09;100.00;100797.59;5031346;28;20029;-85
2023/08/31 04:40:49;;;;;;;5.00;3.42;;;;;;;10.00;100.00;100783.03;5047509;28;20040;-84
2023/08/31 04:43:24;;;;;;;6.72;4.20;;;;;;;10.01;100.00;100791.66;5049551;28;20033;-85
2023/08/31 04:45:51;;;;;;;8.55;4.55;;;;;;;10.01;100.00;100787.34;5051879;28;20033;-85
2023/08/31 04:48:17;;;;;;;6.20;4.00;;;;;;;10.07;100.00;100799.38;5052257;28;20083;-85
2023/08/31 04:50:42;;;;;;;7.47;3.97;;;;;;;9.97;100.00;100782.19;5052482;28;20025;-85
2023/08/31 04:53:13;;;;;;;6.97;3.70;;;;;;;10.02;100.00;100790.78;5051349;28;20033;-84
2023/08/31 04:55:39;;;;;;;8.43;4.70;;;;;;;10.04;100.00;100800.25;5052516;28;20040;-85
2023/08/31 04:58:13;;;;;;;7.37;4.27;;;;;;;10.12;100.00;100817.44;5050314;28;20021;-84
2023/08/31 05:00:41;;;;;;;5.80;4.03;;;;;;;9.96;100.00;100788.28;5051017;28;20031;-83
2023/08/31 05:03:16;;;;;;;7.20;4.25;;;;;;;10.00;100.00;100797.72;5051883;28;20385;-84
2023/08/31 05:05:41;;;;;;;7.55;4.40;;;;;;;10.00;100.00;100801.19;5052223;28;20083;-85
2023/08/31 05:08:08;;;;;;;6.80;4.00;;;;;;;10.10;100.00;100820.03;5049460;28;20029;-85
2023/08/31 05:10:33;;;;;;;5.47;3.70;;;;;;;10.03;100.00;100813.25;5052187;28;20021;-85
2023/08/31 05:12:59;;;;;;;7.00;3.97;;;;;;;10.14;100.00;100821.72;5054355;28;20029;-84
2023/08/31 05:15:27;;;;;;;6.60;4.10;;;;;;;10.16;100.00;100835.53;5054925;28;20025;-84
2023/08/31 05:17:52;;;;;;;4.88;3.20;;;;;;;10.21;100.00;100832.88;5056000;28;20477;-84
2023/08/31 05:20:18;;;;;;;5.50;3.43;;;;;;;10.22;100.00;100833.72;5054453;28;20074;-84
2023/08/31 05:22:43;;;;;;;4.40;3.27;;;;;;;10.27;100.00;100843.16;5056209;28;20501;-84
2023/08/31 05:25:08;;;;;;;5.10;3.23;;;;;;;10.23;100.00;100833.72;5055277;28;20474;-83
2023/08/31 05:27:33;;;;;;;3.43;2.60;;;;;;;10.26;100.00;100840.59;5054784;28;20041;-84
2023/08/31 05:29:59;;;;;;;3.50;2.80;;;;;;;10.27;100.00;100842.31;5055538;28;20032;-84
2023/08/31 05:32:28;;;;;;;3.10;2.40;;;;;;;10.31;100.00;100852.63;5055210;28;20028;-84
2023/08/31 05:34:53;;;;;;;4.47;2.90;;;;;;;10.31;100.00;100863.00;5054302;28;20098;-84
2023/08/31 05:37:18;;;;;;;3.17;2.40;;;;;;;10.27;100.00;100853.53;5055013;28;20025;-84
2023/08/31 05:39:49;;;;;;;4.17;3.00;;;;;;;10.32;100.00;100862.13;5055586;28;20388;-81
2023/08/31 05:42:14;;;;;;;4.03;2.50;;;;;;;10.35;100.00;100867.28;5054297;28;20029;-81
2023/08/31 05:44:40;;;;;;;2.57;2.30;;;;;;;10.37;100.00;100875.03;5055172;28;20025;-83
2023/08/31 05:47:05;;;;;;;3.13;2.37;;;;;;;10.36;100.00;100871.56;5029157;23;20049;-82
2023/08/31 05:49:30;;;;;;;3.90;2.83;;;;;;;10.38;100.00;100873.31;5015381;28;20028;-82
2023/08/31 05:51:56;;;;;;;2.43;2.23;;;;;;;10.39;100.00;100867.25;5016015;28;20068;-83
2023/08/31 05:54:21;;;;;;;2.57;2.33;;;;;;;10.42;100.00;100867.22;5015121;28;20072;-83
2023/08/31 05:56:47;;;;;;;2.20;2.00;;;;;;;10.43;100.00;100869.78;5012815;28;20052;-84
2023/08/31 05:59:13;;;;;;;2.50;2.30;;;;;;;10.50;100.00;100874.00;5015401;28;20036;-85
2023/08/31 06:01:38;;;;;;;3.00;2.60;;;;;;;10.50;100.00;100874.00;5082265;23;20133;-84
2023/08/31 06:04:03;;;;;;;3.53;2.77;;;;;;;10.51;100.00;100867.06;5033808;28;20029;-84
2023/08/31 06:06:29;;;;;;;2.60;2.30;;;;;;;10.58;100.00;100873.03;5035421;28;20021;-84
2023/08/31 06:08:54;;;;;;;2.20;2.00;;;;;;;10.64;100.00;100884.19;5035042;28;20032;-77
2023/08/31 06:11:20;;;;;;;2.73;2.10;;;;;;;10.66;100.00;100877.22;5034038;28;20080;-85
2023/08/31 06:13:45;;;;;;;3.03;2.30;;;;;;;10.69;100.00;100876.31;5034393;28;20037;-85
2023/08/31 06:16:10;;;;;;;2.13;1.93;;;;;;;10.74;100.00;100878.84;5034415;28;20066;-84
2023/08/31 06:18:36;;;;;;;2.90;2.10;;;;;;;10.75;100.00;100870.19;5033836;28;20032;-86
2023/08/31 06:21:01;;;;;;;2.27;2.07;;;;;;;10.82;100.00;100875.25;5022621;28;20026;-86
2023/08/31 06:23:27;;;;;;;2.43;2.00;;;;;;;10.93;100.00;100890.66;5037522;28;20029;-86
2023/08/31 06:25:52;;;;;;;2.30;2.10;;;;;;;11.01;100.00;100892.28;5047506;28;20026;-87
2023/08/31 06:28:17;;;;;;;3.40;2.40;;;;;;;11.05;100.00;100894.81;5034540;28;20070;-86
2023/08/31 06:30:47;;;;;;;4.93;2.63;;;;;;;11.05;100.00;100883.53;5020649;28;20042;-83
2023/08/31 06:33:33;;;;;;;3.22;2.42;;;;;;;11.16;100.00;100872.97;5014649;28;20375;-89
2023/08/31 06:35:58;;;;;;;4.28;2.75;;;;;;;11.20;100.00;100891.09;5014315;28;20379;-83
2023/08/31 06:38:23;;;;;;;3.70;2.90;;;;;;;11.24;100.00;100884.97;5013376;28;20061;-84
2023/08/31 06:40:49;;;;;;;5.80;3.20;;;;;;;11.29;100.00;100882.28;5014146;28;20386;-84
2023/08/31 06:43:14;;;;;;;4.27;3.20;;;;;;;11.49;100.00;100901.84;5013523;28;20364;-84
2023/08/31 06:45:40;;;;;;;3.63;2.80;;;;;;;11.46;100.00;100879.38;5013298;28;20037;-84
2023/08/31 06:48:05;;;;;;;4.53;2.87;;;;;;;11.63;100.00;100910.25;5013941;28;20029;-83
2023/08/31 06:50:35;;;;;;;5.17;2.87;;;;;;;11.72;100.00;100906.59;5013736;28;20030;-83
2023/08/31 06:53:00;;;;;;;3.20;2.47;;;;;;;11.79;100.00;100913.41;5012660;28;20037;-83
2023/08/31 06:55:26;;;;;;;3.13;2.30;;;;;;;11.88;100.00;100914.97;5014034;28;20067;-84
2023/08/31 06:57:51;;;;;;;2.70;2.30;;;;;;;11.93;100.00;100912.31;5014357;28;20081;-85
2023/08/31 07:00:18;;;;;;;3.63;2.50;;;;;;;12.03;100.00;100913.84;5013251;28;20022;-85
2023/08/31 07:02:43;;;;;;;2.88;2.38;;;;;;;12.13;100.00;100917.09;5014191;28;20032;-86
2023/08/31 07:05:10;;;;;;;2.83;2.30;;;;;;;12.30;100.00;100925.44;5031489;28;20021;-86
2023/08/31 07:07:35;;;;;;;;;;;;;;;13.53;100.00;100926.06;5033327;28;20049;-86
2023/08/31 07:10:00;;;;;;;2.30;2.10;;;;;;;16.08;100.00;100929.47;5033752;28;19960;-86
2023/08/31 07:12:29;;;;;;;2.23;1.70;;;;;;;18.49;100.00;100934.34;5033369;28;20058;-86
2023/08/31 07:14:54;;;;;;;1.75;1.55;;;;;;;20.41;99.42;100934.31;5032998;28;20025;-86
2023/08/31 07:17:20;;;;;;;1.17;1.03;;;;;;;21.74;92.12;100939.06;5032649;28;20478;-85
2023/08/31 07:19:45;;;;;;;1.10;1.00;;;;;;;22.49;86.23;100940.63;5033191;28;20067;-86
2023/08/31 07:22:11;;;;;;;1.47;1.27;;;;;;;22.42;78.91;100937.53;5033076;28;20477;-85
2023/08/31 07:24:37;;;;;;;2.67;2.10;;;;;;;21.59;76.04;100943.50;5033364;28;20116;-86
2023/08/31 07:27:03;;;;;;;2.63;2.03;;;;;;;20.39;74.17;100945.88;5032634;28;20117;-86
2023/08/31 07:29:28;;;;;;;2.50;2.10;;;;;;;19.31;81.21;100947.09;5033543;28;20105;-86
2023/08/31 07:31:57;;;;;;;1.97;1.87;;;;;;;18.53;83.82;100942.94;5033237;28;20529;-86
2023/08/31 07:34:23;;;;;;;2.03;1.75;;;;;;;17.90;86.03;100936.13;5032329;28;20025;-86
2023/08/31 07:36:48;;;;;;;2.27;1.60;;;;;;;17.43;87.05;100934.66;5032329;28;20047;-86
2023/08/31 07:39:14;;;;;;;2.57;2.10;;;;;;;17.07;88.56;100940.50;5027859;28;20079;-85
2023/08/31 07:41:39;;;;;;;3.30;2.50;;;;;;;16.71;87.95;100941.91;5012965;28;20076;-85
2023/08/31 07:44:05;;;;;;;3.90;3.07;;;;;;;16.44;88.46;100947.28;5013400;28;20029;-85
2023/08/31 07:46:31;;;;;;;6.10;3.10;;;;;;;16.19;90.21;100943.00;5013491;28;20026;-85
2023/08/31 07:48:56;;;;;;;4.67;2.70;;;;;;;16.06;90.52;100950.44;5012747;28;20060;-86
2023/08/31 07:51:23;;;;;;;2.83;2.30;;;;;;;15.99;92.16;100937.63;5013209;28;20057;-86
2023/08/31 07:53:48;;;;;;;;;;;;;;;15.98;92.25;100942.03;5013601;28;20022;-86
2023/08/31 07:56:14;;;;;;;2.60;1.83;;;;;;;15.91;92.54;100937.94;5012051;28;19920;-86
2023/08/31 07:58:39;;;;;;;2.73;2.20;;;;;;;15.85;92.72;100936.38;5013379;28;20036;-85
2023/08/31 08:01:05;;;;;;;4.90;2.60;;;;;;;15.91;93.45;100940.56;5012964;28;20046;-85
2023/08/31 08:03:30;;;;;;;2.47;2.10;;;;;;;15.94;93.52;100940.41;5012505;28;20494;-85
2023/08/31 08:05:56;;;;;;;3.03;2.03;;;;;;;16.00;93.74;100949.81;5012804;28;20038;-86
2023/08/31 08:08:21;;;;;;;2.07;1.70;;;;;;;16.04;94.10;100956.66;5012502;28;20033;-85
2023/08/31 08:10:46;;;;;;;3.40;2.20;;;;;;;16.10;94.15;100951.19;5012253;28;20125;-86
2023/08/31 08:13:12;;;;;;;4.13;2.70;;;;;;;16.16;93.69;100950.97;5012623;28;20045;-86
2023/08/31 08:15:37;;;;;;;5.13;2.83;;;;;;;16.21;93.14;100959.50;5012863;28;20037;-86
2023/08/31 08:18:03;;;;;;;3.93;2.80;;;;;;;16.21;93.25;100954.25;5011803;28;20037;-85
2023/08/31 08:20:28;;;;;;;6.77;3.30;;;;;;;16.30;92.67;100958.31;5012942;28;20283;-86
2023/08/31 08:22:55;;;;;;;3.97;2.70;;;;;;;16.35;93.71;100964.25;5013064;28;20100;-85
2023/08/31 08:25:21;;;;;;;;;;;;;;;16.47;93.75;100957.66;5012252;28;20496;-86
2023/08/31 08:27:47;;;;;;;4.15;2.50;;;;;;;16.54;92.98;100960.06;5013153;28;19918;-86
2023/08/31 08:30:13;;;;;;;3.88;2.40;;;;;;;16.58;91.69;100962.50;5012147;28;20140;-85
2023/08/31 08:32:39;;;;;;;3.05;2.30;;;;;;;16.68;92.87;100961.22;5013039;28;20030;-86
2023/08/31 08:35:04;;;;;;;3.67;2.47;;;;;;;16.71;91.72;100956.78;5012867;28;20076;-86
2023/08/31 08:37:32;;;;;;;4.03;2.47;;;;;;;16.81;91.95;100963.38;5011990;28;20390;-86
2023/08/31 08:39:58;;;;;;;7.88;3.80;;;;;;;16.85;90.56;100958.84;5012804;28;20385;-85
2023/08/31 08:42:25;;;;;;;5.43;3.10;;;;;;;16.98;91.78;100965.34;5012490;28;20122;-87
2023/08/31 08:44:51;;;;;;;5.70;2.88;;;;;;;17.11;91.57;100965.69;5013244;28;20026;-86
2023/08/31 08:47:17;;;;;;;6.47;3.47;;;;;;;17.20;89.39;100974.97;5031084;28;20029;-86
2023/08/31 08:49:44;;;;;;;7.18;3.88;;;;;;;17.25;89.57;100970.38;5035844;28;20026;-86
2023/08/31 08:52:09;;;;;;;;;;;;;;;17.39;90.63;100975.91;5026797;28;20065;-86
2023/08/31 08:54:35;;;;;;;5.28;2.63;;;;;;;17.51;90.79;100979.78;5015725;28;19960;-86
2023/08/31 08:57:00;;;;;;;2.30;2.10;;;;;;;17.64;90.49;100982.75;5016182;28;20513;-86
2023/08/31 08:59:27;;;;;;;2.97;2.10;;;;;;;17.71;89.40;100984.19;5015239;28;20037;-85
2023/08/31 09:01:53;;;;;;;5.63;2.70;;;;;;;17.77;88.98;100980.44;5016143;28;20069;-85
2023/08/31 09:04:19;;;;;;;5.47;2.83;;;;;;;17.82;84.74;100978.47;5030822;23;20101;-84
2023/08/31 09:06:44;;;;;;;3.38;2.65;;;;;;;17.84;87.14;100978.41;5015359;28;20486;-83
2023/08/31 09:09:10;;;;;;;4.83;2.93;;;;;;;17.97;88.62;100976.97;5015753;28;20475;-85
2023/08/31 09:11:36;;;;;;;3.75;2.47;;;;;;;18.13;86.87;100985.03;5016361;28;20132;-84
2023/08/31 09:14:17;;;;;;;6.13;2.90;;;;;;;18.17;87.28;100980.47;5016308;28;20112;-85
2023/08/31 09:16:47;;;;;;;4.68;2.83;;;;;;;18.37;86.99;100980.41;5016065;28;20649;-85
2023/08/31 09:19:28;;;;;;;5.53;2.90;;;;;;;18.50;85.32;100982.47;5015529;28;20022;-87
2023/08/31 09:21:56;;;;;;;3.72;2.67;;;;;;;18.60;82.22;100983.75;5016090;28;20026;-87
2023/08/31 09:24:27;;;;;;;5.78;3.05;;;;;;;18.63;82.32;100988.88;5015398;28;20082;-86
2023/08/31 09:26:57;;;;;;;4.60;2.85;;;;;;;18.60;83.97;100978.50;5015170;28;20025;-83
2023/08/31 09:29:22;;;;;;;4.88;2.65;;;;;;;18.75;83.76;100997.13;5015220;28;20450;-85
2023/08/31 09:31:48;;;;;;;5.60;3.27;;;;;;;18.86;82.75;100994.00;5015627;28;20022;-85
2023/08/31 09:34:18;;;;;;;3.75;3.00;;;;;;;18.96;80.88;100996.13;5014631;28;20026;-84
2023/08/31 09:36:44;;;;;;;6.38;3.38;;;;;;;19.03;78.91;100999.31;5015841;28;20470;-79
2023/08/31 09:39:11;;;;;;;4.73;2.90;;;;;;;19.10;78.84;100991.97;5015353;28;20025;-85
2023/08/31 09:41:52;;;;;;;3.40;2.40;;;;;;;19.20;82.80;100993.22;5014740;28;20289;-85
2023/08/31 09:44:19;;;;;;;5.65;2.85;;;;;;;19.30;77.58;100993.63;5015289;28;20445;-85
2023/08/31 09:46:45;;;;;;;;;;;;;;;19.38;77.50;101001.97;5015775;28;20470;-82
2023/08/31 09:49:17;;;;;;;5.28;3.40;;;;;;;19.47;78.74;100995.41;5014708;28;20003;-82
2023/08/31 09:51:47;;;;;;;4.03;2.75;;;;;;;19.62;79.22;100993.78;5015541;28;20072;-82
2023/08/31 09:54:15;;;;;;;3.55;2.90;;;;;;;19.75;79.04;101005.41;5014890;28;20037;-82
2023/08/31 09:56:42;;;;;;;5.13;3.03;;;;;;;19.80;77.09;101001.66;5014401;28;20026;-82
2023/08/31 09:59:08;;;;;;;5.00;2.72;;;;;;;19.73;72.44;100995.84;5013797;28;20067;-82
2023/08/31 10:01:40;;;;;;;;;;;;;;;19.63;76.42;101002.53;5014528;28;20037;-85
2023/08/31 10:04:08;;;;;;;3.33;2.60;;;;;;;19.55;77.45;101010.78;5014483;28;19995;-83
2023/08/31 10:06:34;;;;;;;4.20;2.60;;;;;;;19.51;76.70;101006.63;5015057;28;20394;-82
2023/08/31 10:09:00;;;;;;;3.95;2.70;;;;;;;19.66;79.40;101002.38;5013683;28;20035;-82
2023/08/31 10:11:26;;;;;;;3.63;2.53;;;;;;;19.95;76.06;100995.63;5014502;28;20036;-83
2023/08/31 10:13:53;;;;;;;3.37;2.30;;;;;;;20.20;77.10;101007.50;5015043;28;20033;-83
2023/08/31 10:16:19;;;;;;;2.75;2.08;;;;;;;20.41;71.53;101004.66;5014080;28;20032;-82
2023/08/31 10:18:45;;;;;;;3.10;1.98;;;;;;;20.51;73.04;101003.22;5014478;28;20034;-83
2023/08/31 10:21:11;;;;;;;2.87;1.90;;;;;;;20.60;72.59;101007.13;5014651;28;20041;-83
2023/08/31 10:23:44;;;;;;;2.03;1.83;;;;;;;20.53;74.97;100998.72;5014009;28;20042;-82
2023/08/31 10:26:09;;;;;;;2.90;1.98;;;;;;;20.56;74.26;101001.16;5014471;28;20113;-81
2023/08/31 10:28:40;;;;;;;4.13;2.17;;;;;;;20.67;71.41;101001.41;5014894;28;20109;-80
2023/08/31 10:31:08;;;;;;;2.00;1.80;;;;;;;20.71;74.48;101009.16;5013175;28;20036;-85
2023/08/31 10:33:42;;;;;;;3.42;2.10;;;;;;;20.57;71.37;100996.75;5014652;28;20363;-84
2023/08/31 10:36:11;;;;;;;2.10;1.90;;;;;;;20.50;74.12;100996.25;5013336;28;20037;-84
2023/08/31 10:38:37;;;;;;;2.50;2.08;;;;;;;20.56;72.55;100997.69;5013509;28;20040;-85
2023/08/31 10:41:05;;;;;;;3.45;2.10;;;;;;;20.59;71.01;100995.72;5014114;28;20486;-87
2023/08/31 10:43:54;;;;;;;2.38;2.17;;;;;;;20.61;64.72;100987.72;5014431;28;20116;-84
2023/08/31 10:46:35;;;;;;;3.05;2.10;;;;;;;20.66;69.61;100980.41;5014074;28;20029;-84
2023/08/31 10:49:09;;;;;;;3.97;2.30;;;;;;;20.81;71.73;100979.59;5013904;28;20028;-84
2023/08/31 10:51:35;;;;;;;3.42;2.10;;;;;;;20.94;70.99;100971.00;5013352;28;20060;-83
2023/08/31 10:54:09;;;;;;;3.40;2.42;;;;;;;21.14;69.17;100968.06;5014103;28;20030;-84
2023/08/31 10:57:08;;;;;;;2.22;1.90;;;;;;;21.28;68.79;100967.25;5014186;28;20026;-84
2023/08/31 10:59:48;;;;;;;2.45;2.17;;;;;;;21.39;65.35;100977.16;5005870;28;20554;-84
2023/08/31 11:02:38;;;;;;;4.15;2.20;;;;;;;21.38;66.49;100975.47;5013356;28;20056;-84
2023/08/31 11:05:07;;;;;;;2.10;1.90;;;;;;;21.40;64.11;100975.38;5004261;28;20124;-84
2023/08/31 11:07:36;;;;;;;4.95;2.42;;;;;;;21.34;62.98;100966.03;5013620;28;20030;-83
2023/08/31 11:10:07;;;;;;;3.92;2.13;;;;;;;21.10;62.55;100982.34;5013657;28;20138;-83
2023/08/31 11:12:32;;;;;;;3.42;2.00;;;;;;;20.88;66.95;100987.16;5013018;28;20032;-84
2023/08/31 11:14:58;;;;;;;5.00;1.90;;;;;;;20.61;60.51;100975.41;5013860;28;20034;-83
2023/08/31 11:17:24;;;;;;;4.57;2.10;;;;;;;20.49;62.36;100978.72;5013466;28;20022;-84
2023/08/31 11:19:49;;;;;;;2.25;2.00;;;;;;;20.40;60.40;100969.50;5013052;28;20017;-84
2023/08/31 11:22:15;;;;;;;4.20;2.10;;;;;;;20.40;64.21;100984.50;5013245;28;20367;-85